createdAt,value
2019-01-04T00:01:45.180Z,-2.75
2019-01-04T00:04:23.427Z,-2.71
2019-01-04T00:06:54.262Z,-2.80
2019-01-04T00:09:25.097Z,-2.83
2019-01-04T00:11:55.891Z,-2.85
2019-01-04T00:14:26.765Z,-2.82
2019-01-04T00:16:57.669Z,-2.80
2019-01-04T00:19:28.492Z,-2.85
2019-01-04T00:21:59.382Z,-2.92
2019-01-04T00:24:30.182Z,-3.00
2019-01-04T00:27:00.970Z,-3.10
2019-01-04T00:29:31.761Z,-3.18
2019-01-04T00:32:02.570Z,-3.32
2019-01-04T00:34:33.358Z,-3.29
2019-01-04T00:37:04.222Z,-3.08
2019-01-04T00:39:35.007Z,-3.03
2019-01-04T00:42:05.797Z,-2.93
2019-01-04T00:44:36.676Z,-2.98
2019-01-04T00:47:07.489Z,-2.91
2019-01-04T00:49:38.306Z,-2.82
2019-01-04T00:52:09.154Z,-2.88
2019-01-04T00:54:39.990Z,-2.92
2019-01-04T00:58:00.230Z,-2.99
2019-01-04T01:01:32.673Z,-2.95
2019-01-04T01:04:50.277Z,-3.01
2019-01-04T01:08:37.911Z,-3.07
2019-01-04T01:12:22.931Z,-3.05
2019-01-04T01:15:53.737Z,-2.92
2019-01-04T01:18:57.731Z,-2.91
2019-01-04T01:22:21.821Z,-2.97
2019-01-04T01:25:59.189Z,-2.94
2019-01-04T01:29:38.469Z,-2.92
2019-01-04T01:32:57.129Z,-2.90
2019-01-04T01:36:09.882Z,-2.81
2019-01-04T01:39:59.087Z,-2.88
2019-01-04T01:43:24.479Z,-2.95
2019-01-04T01:46:49.945Z,-3.01
2019-01-04T01:50:12.445Z,-3.11
2019-01-04T01:52:47.834Z,-3.10
2019-01-04T01:55:18.641Z,-2.95
2019-01-04T01:57:49.406Z,-2.67
2019-01-04T02:00:20.333Z,-2.59
2019-01-04T02:02:51.129Z,-2.55
2019-01-04T02:05:21.969Z,-2.51
2019-01-04T02:07:52.753Z,-2.42
2019-01-04T02:10:23.589Z,-2.31
2019-01-04T02:12:54.357Z,-2.24
2019-01-04T02:15:25.221Z,-2.15
2019-01-04T02:17:56.059Z,-2.13
2019-01-04T02:20:26.875Z,-2.05
2019-01-04T02:22:57.689Z,-1.99
2019-01-04T02:25:28.571Z,-1.87
2019-01-04T02:27:59.376Z,-1.79
2019-01-04T02:30:30.343Z,-1.63
2019-01-04T02:33:01.133Z,-1.58
2019-01-04T02:35:31.948Z,-1.58
2019-01-04T02:38:02.825Z,-1.53
2019-01-04T02:40:33.662Z,-1.55
2019-01-04T02:43:04.624Z,-1.54
2019-01-04T02:45:37.855Z,-1.53
2019-01-04T02:48:08.789Z,-1.65
2019-01-04T02:50:39.897Z,-1.52
2019-01-04T02:53:10.864Z,-1.53
2019-01-04T02:55:44.249Z,-1.49
2019-01-04T02:58:15.405Z,-1.46
2019-01-04T03:00:46.200Z,-1.47
2019-01-04T03:03:17.201Z,-1.43
2019-01-04T03:05:48.073Z,-1.43
2019-01-04T03:08:20.658Z,-1.37
2019-01-04T03:10:51.390Z,-1.32
2019-01-04T03:13:22.184Z,-1.32
2019-01-04T03:15:53.170Z,-1.33
2019-01-04T03:18:24.185Z,-1.36
2019-01-04T03:20:55.125Z,-1.31
2019-01-04T03:23:26.072Z,-1.28
2019-01-04T03:25:57.068Z,-1.25
2019-01-04T03:28:27.784Z,-1.21
2019-01-04T03:30:58.662Z,-1.14
2019-01-04T03:33:29.439Z,-1.12
2019-01-04T03:36:19.248Z,-1.06
2019-01-04T03:38:50.248Z,-1.01
2019-01-04T03:41:21.373Z,-0.95
2019-01-04T03:43:52.387Z,-0.86
2019-01-04T03:46:23.246Z,-0.86
2019-01-04T03:48:55.300Z,-0.84
2019-01-04T03:51:27.912Z,-0.87
2019-01-04T03:53:58.806Z,-0.81
2019-01-04T03:56:29.576Z,-0.81
2019-01-04T03:59:02.936Z,-0.78
2019-01-04T04:01:36.583Z,-0.76
2019-01-04T04:04:07.720Z,-0.79
2019-01-04T04:06:39.232Z,-0.76
2019-01-04T04:09:11.256Z,-0.81
2019-01-04T04:11:45.436Z,-0.73
2019-01-04T04:14:18.846Z,-0.70
2019-01-04T04:16:49.772Z,-0.66
2019-01-04T04:19:21.042Z,-0.62
2019-01-04T04:21:59.571Z,-0.61
2019-01-04T04:24:32.793Z,-0.65
2019-01-04T04:27:03.808Z,-0.64
2019-01-04T04:29:40.252Z,-0.59
2019-01-04T04:32:11.157Z,-0.62
2019-01-04T04:34:42.008Z,-0.60
2019-01-04T04:37:12.879Z,-0.53
2019-01-04T04:39:43.724Z,-0.54
2019-01-04T04:42:17.763Z,-0.44
2019-01-04T04:44:48.611Z,-0.41
2019-01-04T04:47:19.451Z,-0.37
2019-01-04T04:49:50.226Z,-0.41
2019-01-04T04:52:21.063Z,-0.38
2019-01-04T04:54:53.160Z,-0.42
2019-01-04T04:57:30.107Z,-0.36
2019-01-04T05:00:01.136Z,-0.31
2019-01-04T05:02:32.152Z,-0.37
2019-01-04T05:05:06.076Z,-0.26
2019-01-04T05:07:36.954Z,-0.24
2019-01-04T05:10:07.758Z,-0.26
2019-01-04T05:12:41.118Z,-0.29
2019-01-04T05:15:13.324Z,-0.30
2019-01-04T05:17:47.663Z,-0.36
2019-01-04T05:20:20.327Z,-0.40
2019-01-04T05:22:51.164Z,-0.42
2019-01-04T05:25:21.951Z,-0.40
2019-01-04T05:27:52.779Z,-0.37
2019-01-04T05:30:23.738Z,-0.37
2019-01-04T05:32:54.783Z,-0.34
2019-01-04T05:35:29.531Z,-0.43
2019-01-04T05:38:02.143Z,-0.41
2019-01-04T05:40:34.331Z,-0.40
2019-01-04T05:43:05.197Z,-0.27
2019-01-04T05:45:38.387Z,-0.17
2019-01-04T05:48:11.375Z,-0.14
2019-01-04T05:50:44.524Z,-0.09
2019-01-04T05:53:17.010Z,-0.11
2019-01-04T05:55:48.071Z,-0.14
2019-01-04T05:58:20.043Z,-0.08
2019-01-04T06:00:51.009Z,-0.18
2019-01-04T06:03:22.305Z,-0.22
2019-01-04T06:05:53.285Z,-0.28
2019-01-04T06:08:25.311Z,-0.34
2019-01-04T06:10:56.061Z,-0.32
2019-01-04T06:13:26.915Z,-0.35
2019-01-04T06:15:57.702Z,-0.13
2019-01-04T06:18:28.651Z,-0.09
2019-01-04T06:21:01.099Z,-0.24
2019-01-04T06:23:35.179Z,-0.27
2019-01-04T06:26:07.129Z,-0.30
2019-01-04T06:28:38.123Z,-0.25
2019-01-04T06:31:09.186Z,-0.39
2019-01-04T06:33:40.148Z,-0.32
2019-01-04T06:36:10.968Z,-0.34
2019-01-04T06:38:41.815Z,-0.29
2019-01-04T06:41:12.663Z,-0.21
2019-01-04T06:43:43.402Z,-0.10
2019-01-04T06:46:14.264Z,-0.19
2019-01-04T06:48:48.094Z,-0.19
2019-01-04T06:51:19.110Z,-0.04
2019-01-04T06:53:56.437Z,-0.02
2019-01-04T06:56:30.301Z,-0.04
2019-01-04T06:59:01.160Z,-0.03
2019-01-04T07:01:32.120Z,-0.01
2019-01-04T07:04:03.031Z,-0.01
2019-01-04T07:06:34.014Z,0.03
2019-01-04T07:09:06.094Z,0.13
2019-01-04T07:11:41.108Z,0.20
2019-01-04T07:14:14.307Z,0.20
2019-01-04T07:16:49.324Z,0.22
2019-01-04T07:19:23.218Z,0.09
2019-01-04T07:21:55.043Z,0.15
2019-01-04T07:24:30.146Z,0.33
2019-01-04T07:27:01.310Z,0.28
2019-01-04T07:29:33.442Z,0.18
2019-01-04T07:32:04.630Z,0.40
2019-01-04T07:34:35.482Z,0.45
2019-01-04T07:37:08.958Z,0.48
2019-01-04T07:39:39.850Z,0.45
2019-01-04T07:42:10.790Z,0.40
2019-01-04T07:44:42.701Z,0.43
2019-01-04T07:47:16.198Z,0.40
2019-01-04T07:49:47.343Z,0.45
2019-01-04T07:52:18.354Z,0.69
2019-01-04T07:54:49.219Z,0.62
2019-01-04T07:57:20.045Z,0.62
2019-01-04T07:59:50.958Z,0.64
2019-01-04T08:02:39.053Z,0.64
2019-01-04T08:05:19.257Z,0.61
2019-01-04T08:07:50.088Z,0.74
2019-01-04T08:10:20.840Z,0.85
2019-01-04T08:24:23.082Z,1.27
2019-01-04T08:26:53.999Z,1.18
2019-01-04T08:29:24.795Z,1.09
2019-01-04T08:31:55.624Z,1.16
2019-01-04T08:34:26.385Z,1.15
2019-01-04T08:36:57.254Z,1.17
2019-01-04T08:39:28.068Z,1.28
2019-01-04T08:41:58.921Z,1.26
2019-01-04T08:44:29.704Z,1.24
2019-01-04T08:47:00.568Z,1.37
2019-01-04T08:49:31.346Z,1.47
2019-01-04T08:52:02.191Z,1.47
2019-01-04T08:54:33.106Z,1.71
2019-01-04T08:57:04.108Z,1.65
2019-01-04T08:59:34.842Z,1.59
2019-01-04T09:02:05.626Z,1.67
2019-01-04T09:04:39.149Z,1.70
2019-01-04T09:07:09.934Z,1.73
2019-01-04T09:09:40.709Z,1.69
2019-01-04T09:12:11.512Z,1.73
2019-01-04T09:14:42.500Z,1.72
2019-01-04T09:17:13.341Z,1.82
2019-01-04T09:19:44.142Z,1.87
2019-01-04T09:22:15.814Z,1.84
2019-01-04T09:24:47.104Z,2.07
2019-01-04T09:27:17.857Z,1.85
2019-01-04T09:29:48.670Z,2.17
2019-01-04T09:32:19.523Z,2.02
2019-01-04T09:34:50.445Z,2.12
2019-01-04T09:37:21.366Z,2.21
2019-01-04T09:39:52.168Z,2.20
2019-01-04T09:42:24.606Z,2.28
2019-01-04T09:44:55.405Z,2.27
2019-01-04T09:47:26.182Z,2.34
2019-01-04T09:49:57.005Z,2.28
2019-01-04T09:52:27.821Z,2.36
2019-01-04T09:54:58.629Z,2.37
2019-01-04T09:57:29.469Z,2.59
2019-01-04T10:00:00.431Z,2.68
2019-01-04T10:02:31.224Z,2.67
2019-01-04T10:05:04.031Z,2.75
2019-01-04T10:07:34.857Z,2.95
2019-01-04T10:10:06.493Z,2.96
2019-01-04T10:12:38.342Z,2.90
2019-01-04T10:15:18.578Z,3.00
2019-01-04T10:17:49.441Z,2.96
2019-01-04T10:20:20.261Z,2.94
2019-01-04T10:22:51.082Z,2.92
2019-01-04T10:25:21.909Z,3.04
2019-01-04T10:27:52.711Z,2.88
2019-01-04T10:30:28.456Z,2.88
2019-01-04T10:32:59.304Z,2.97
2019-01-04T10:35:30.077Z,2.97
2019-01-04T10:38:00.950Z,2.77
2019-01-04T10:40:31.818Z,2.89
2019-01-04T10:43:02.621Z,3.12
2019-01-04T10:45:34.131Z,3.03
2019-01-04T10:48:04.990Z,3.14
2019-01-04T10:50:35.823Z,2.94
2019-01-04T10:53:06.720Z,2.95
2019-01-04T10:55:37.576Z,3.02
2019-01-04T10:58:08.392Z,3.15
2019-01-04T11:00:39.185Z,3.13
2019-01-04T11:03:10.003Z,3.09
2019-01-04T11:05:40.964Z,2.80
2019-01-04T11:08:12.239Z,2.91
2019-01-04T11:10:43.060Z,3.00
2019-01-04T11:13:13.846Z,3.09
2019-01-04T11:15:44.598Z,3.07
2019-01-04T11:18:15.424Z,3.03
2019-01-04T11:20:52.697Z,3.18
2019-01-04T11:24:20.941Z,3.31
2019-01-04T11:27:14.911Z,3.27
2019-01-04T11:30:48.877Z,3.11
2019-01-04T11:34:10.674Z,2.90
2019-01-04T11:37:48.065Z,2.98
2019-01-04T11:41:12.244Z,2.80
2019-01-04T11:44:36.084Z,2.84
2019-01-04T11:48:26.772Z,2.93
2019-01-04T11:51:44.885Z,2.77
2019-01-04T11:54:21.839Z,2.78
2019-01-04T11:56:52.900Z,2.77
2019-01-04T12:03:31.357Z,2.95
2019-01-04T12:06:52.812Z,2.87
2019-01-04T12:10:53.916Z,2.82
2019-01-04T12:14:01.650Z,2.79
2019-01-04T12:16:32.788Z,2.84
2019-01-04T12:19:03.932Z,2.86
2019-01-04T12:21:35.258Z,2.81
2019-01-04T12:24:06.116Z,2.93
2019-01-04T12:26:36.935Z,2.94
2019-01-04T12:29:07.741Z,2.89
2019-01-04T12:31:38.516Z,2.97
2019-01-04T12:34:09.661Z,2.87
2019-01-04T12:36:40.511Z,2.97
2019-01-04T12:39:11.859Z,3.09
2019-01-04T12:41:42.688Z,3.15
2019-01-04T12:44:14.198Z,3.14
2019-01-04T12:46:52.681Z,3.04
2019-01-04T12:49:24.332Z,3.06
2019-01-04T12:51:55.151Z,3.13
2019-01-04T12:54:26.416Z,3.16
2019-01-04T12:56:57.517Z,3.16
2019-01-04T12:59:35.558Z,3.20
2019-01-04T13:02:06.463Z,3.21
2019-01-04T13:04:37.408Z,3.24
2019-01-04T13:07:08.308Z,3.18
2019-01-04T13:09:41.359Z,3.23
2019-01-04T13:12:13.443Z,3.22
2019-01-04T13:14:44.623Z,3.23
2019-01-04T13:17:15.920Z,3.24
2019-01-04T13:20:57.243Z,3.22
2019-01-04T13:23:28.419Z,3.25
2019-01-04T13:25:59.779Z,3.24
2019-01-04T13:28:31.565Z,3.28
2019-01-04T13:31:04.253Z,3.24
2019-01-04T13:33:36.633Z,3.23
2019-01-04T13:36:11.117Z,3.25
2019-01-04T13:38:42.039Z,3.31
2019-01-04T13:41:12.848Z,3.23
2019-01-04T13:44:43.660Z,3.21
2019-01-04T13:50:54.971Z,3.37
2019-01-04T13:54:04.911Z,3.31
2019-01-04T13:56:37.390Z,3.28
2019-01-04T13:59:09.633Z,3.29
2019-01-04T14:01:41.720Z,3.27
2019-01-04T14:04:12.653Z,3.31
2019-01-04T14:06:43.488Z,3.31
2019-01-04T14:09:14.549Z,3.29
2019-01-04T14:11:48.163Z,3.28
2019-01-04T14:14:35.226Z,3.30
2019-01-04T14:17:06.189Z,3.30
2019-01-04T14:19:37.575Z,3.31
2019-01-04T14:27:06.311Z,3.18
2019-01-04T14:29:37.419Z,3.24
2019-01-04T14:32:08.742Z,3.23
2019-01-04T14:35:46.890Z,3.20
2019-01-04T14:38:19.289Z,3.26
2019-01-04T14:41:04.352Z,3.24
2019-01-04T14:48:10.690Z,3.20
2019-01-04T14:50:30.410Z,3.15
2019-01-04T14:55:00.567Z,3.28
2019-01-04T14:59:21.018Z,3.25
2019-01-04T15:00:27.638Z,3.16
2019-01-04T15:02:55.450Z,3.20
2019-01-04T15:12:06.420Z,3.17
2019-01-04T15:14:47.826Z,3.23
2019-01-04T15:27:26.286Z,3.22
2019-01-04T15:30:32.701Z,3.27
2019-01-04T15:48:05.937Z,3.26
2019-01-04T15:50:31.334Z,3.30
2019-01-04T15:53:03.702Z,3.25
2019-01-04T15:55:36.153Z,3.30
2019-01-04T15:58:07.167Z,3.31
2019-01-04T16:00:38.064Z,3.31
2019-01-04T16:03:22.757Z,3.29
2019-01-04T16:05:56.621Z,3.33
2019-01-04T16:08:27.458Z,3.33
2019-01-04T16:13:49.746Z,3.36
2019-01-04T16:16:25.134Z,3.34
2019-01-04T16:18:56.297Z,3.33
2019-01-04T16:23:07.445Z,3.37
2019-01-04T16:25:21.446Z,3.42
2019-01-04T16:27:52.780Z,3.38
2019-01-04T16:30:28.493Z,3.44
2019-01-04T16:32:59.512Z,3.36
2019-01-04T16:35:33.377Z,3.39
2019-01-04T16:38:05.921Z,3.41
2019-01-04T16:40:36.964Z,3.43
2019-01-04T16:43:11.185Z,3.42
2019-01-04T16:46:32.009Z,3.50
2019-01-04T16:50:57.320Z,3.47
2019-01-04T16:53:30.564Z,3.42
2019-01-04T16:56:01.573Z,3.44
2019-01-04T16:58:32.490Z,3.37
2019-01-04T17:01:07.175Z,3.45
2019-01-04T17:03:39.687Z,3.46
2019-01-04T17:06:10.739Z,3.55
2019-01-04T17:08:41.975Z,3.58
2019-01-04T17:11:12.965Z,3.54
2019-01-04T17:13:43.925Z,3.50
2019-01-04T17:16:19.125Z,3.57
2019-01-04T17:18:51.698Z,3.44
2019-01-04T17:21:35.045Z,3.48
2019-01-04T17:23:57.174Z,3.49
2019-01-04T17:26:28.108Z,3.42
2019-01-04T17:28:58.917Z,3.57
2019-01-04T17:31:29.802Z,3.52
2019-01-04T17:34:00.695Z,3.60
2019-01-04T17:36:31.622Z,3.60
2019-01-04T17:39:02.604Z,3.53
2019-01-04T17:41:35.224Z,3.53
2019-01-04T17:44:06.186Z,3.52
2019-01-04T17:46:37.153Z,3.55
2019-01-04T17:49:07.939Z,3.55
2019-01-04T17:51:38.873Z,3.63
2019-01-04T17:54:09.668Z,3.76
2019-01-04T17:57:19.560Z,3.79
2019-01-04T17:59:50.525Z,3.73
2019-01-04T18:02:21.586Z,3.74
2019-01-04T18:04:55.993Z,3.69
2019-01-04T18:10:08.088Z,3.68
2019-01-04T18:15:13.909Z,3.76
2019-01-04T18:18:02.544Z,3.77
2019-01-04T18:20:30.154Z,3.74
2019-01-04T18:25:39.039Z,3.71
2019-01-04T18:29:14.702Z,3.69
2019-01-04T18:30:52.964Z,3.74
2019-01-04T18:33:31.067Z,3.76
2019-01-04T18:36:02.205Z,3.73
2019-01-04T18:38:33.274Z,3.77
2019-01-04T18:41:04.592Z,3.79
2019-01-04T18:43:36.587Z,3.80
2019-01-04T18:46:07.717Z,3.79
2019-01-04T18:48:42.127Z,3.75
2019-01-04T18:51:13.569Z,3.87
2019-01-04T18:53:46.521Z,3.88
2019-01-04T18:56:17.720Z,3.82
2019-01-04T18:58:49.017Z,3.88
2019-01-04T19:01:19.805Z,3.86
2019-01-04T19:03:50.788Z,3.93
2019-01-04T19:06:22.133Z,3.88
2019-01-04T19:08:52.907Z,3.90
2019-01-04T19:11:23.771Z,3.93
2019-01-04T19:13:54.730Z,3.90
2019-01-04T19:16:25.749Z,3.95
2019-01-04T19:18:56.991Z,3.92
2019-01-04T19:21:27.942Z,3.93
2019-01-04T19:24:00.144Z,3.97
2019-01-04T19:26:31.877Z,3.95
2019-01-04T19:29:03.206Z,3.90
2019-01-04T19:31:36.821Z,3.99
2019-01-04T19:34:07.790Z,3.95
2019-01-04T19:36:43.021Z,3.98
2019-01-04T19:39:15.256Z,4.03
2019-01-04T19:41:48.294Z,3.97
2019-01-04T19:44:19.669Z,4.05
2019-01-04T19:46:51.196Z,4.04
2019-01-04T19:49:22.406Z,4.05
2019-01-04T19:51:59.064Z,4.02
2019-01-04T19:55:08.870Z,4.08
2019-01-04T19:57:40.251Z,4.06
2019-01-04T20:00:15.086Z,4.04
2019-01-04T20:02:53.390Z,4.02
2019-01-04T20:18:01.699Z,4.04
2019-01-04T20:20:55.409Z,4.09
2019-01-04T20:23:47.190Z,4.08
2019-01-04T20:26:37.397Z,4.07
2019-01-04T20:29:26.810Z,4.10
2019-01-04T20:32:22.643Z,4.12
2019-01-04T20:35:21.911Z,4.15
2019-01-04T20:38:10.824Z,4.13
2019-01-04T20:41:04.028Z,4.18
2019-01-04T20:43:53.051Z,4.13
2019-01-04T20:46:52.387Z,4.08
2019-01-04T20:49:43.083Z,4.21
2019-01-04T20:52:26.446Z,4.25
2019-01-04T20:55:17.935Z,4.18
2019-01-04T20:58:07.812Z,4.14
2019-01-04T21:01:10.884Z,4.18
2019-01-04T21:04:14.616Z,4.07
2019-01-04T21:10:54.956Z,4.26
2019-01-04T21:13:21.138Z,4.18
2019-01-04T21:16:11.823Z,4.19
2019-01-04T21:19:06.968Z,4.22
2019-01-04T21:22:06.273Z,4.25
2019-01-04T21:24:56.055Z,4.23
2019-01-04T21:27:52.408Z,4.18
2019-01-04T21:30:37.200Z,4.23
2019-01-04T21:33:27.605Z,4.33
2019-01-04T21:36:23.403Z,4.28
2019-01-04T21:39:11.932Z,4.30
2019-01-04T21:42:14.130Z,4.29
2019-01-04T21:45:02.883Z,4.32
2019-01-04T21:47:55.920Z,4.37
2019-01-04T21:50:57.719Z,4.31
2019-01-04T21:53:42.663Z,4.29
2019-01-04T21:56:47.787Z,4.32
2019-01-04T21:59:37.088Z,4.44
2019-01-04T22:02:56.176Z,4.35
2019-01-04T22:05:39.976Z,4.32
2019-01-04T22:08:35.899Z,4.33
2019-01-04T22:11:24.678Z,4.36
2019-01-04T22:14:13.079Z,4.34
2019-01-04T22:17:02.142Z,4.32
2019-01-04T22:19:48.928Z,4.40
2019-01-04T22:22:53.904Z,4.36
2019-01-04T22:25:58.560Z,4.30
2019-01-04T22:28:48.589Z,4.45
2019-01-04T22:31:37.668Z,4.45
2019-01-04T22:34:22.405Z,4.60
2019-01-04T22:37:30.075Z,4.73
2019-01-04T22:40:28.559Z,4.68
2019-01-04T22:43:27.291Z,4.75
2019-01-04T22:46:19.950Z,4.67
2019-01-04T22:49:08.603Z,4.72
2019-01-04T22:51:57.267Z,4.78
2019-01-04T22:54:56.028Z,4.80
2019-01-04T22:57:45.042Z,4.83
2019-01-04T23:00:44.785Z,4.85
2019-01-04T23:03:43.582Z,4.83
2019-01-04T23:06:32.483Z,4.72
2019-01-04T23:09:26.978Z,4.79
2019-01-04T23:12:15.512Z,4.76
2019-01-04T23:15:19.909Z,4.79
2019-01-04T23:18:07.021Z,4.85
2019-01-04T23:21:05.775Z,4.80
2019-01-04T23:23:55.527Z,4.83
2019-01-04T23:26:44.250Z,4.80
2019-01-04T23:29:37.006Z,4.79
2019-01-04T23:32:26.713Z,4.80
2019-01-04T23:35:25.746Z,4.81
2019-01-04T23:38:14.216Z,4.78
2019-01-04T23:41:03.875Z,4.73
2019-01-04T23:43:56.384Z,4.71
2019-01-04T23:46:41.160Z,4.63
2019-01-04T23:49:40.355Z,4.73
2019-01-04T23:52:35.681Z,4.76
2019-01-04T23:55:34.452Z,4.77
2019-01-04T23:58:24.138Z,4.78
